sensor_id;sensor_type;location;lat;lon;timestamp;temperature;humidity
16901;DHT22;8567;52.540;6.434;2023-08-08T00:01:14;26.00;49.50
16901;DHT22;8567;52.540;6.434;2023-08-08T00:03:41;26.00;49.60
16901;DHT22;8567;52.540;6.434;2023-08-08T00:06:07;26.00;49.60
16901;DHT22;8567;52.540;6.434;2023-08-08T00:08:34;26.00;49.60
16901;DHT22;8567;52.540;6.434;2023-08-08T00:11:01;25.90;49.70
16901;DHT22;8567;52.540;6.434;2023-08-08T00:13:28;25.90;49.60
16901;DHT22;8567;52.540;6.434;2023-08-08T00:15:56;25.90;49.70
16901;DHT22;8567;52.540;6.434;2023-08-08T00:18:23;25.90;49.70
16901;DHT22;8567;52.540;6.434;2023-08-08T00:20:50;25.90;49.80
16901;DHT22;8567;52.540;6.434;2023-08-08T00:23:17;25.90;49.80
16901;DHT22;8567;52.540;6.434;2023-08-08T00:25:44;25.80;49.90
16901;DHT22;8567;52.540;6.434;2023-08-08T00:28:15;25.80;49.90
16901;DHT22;8567;52.540;6.434;2023-08-08T00:30:42;25.90;49.90
16901;DHT22;8567;52.540;6.434;2023-08-08T00:33:10;25.80;50.00
16901;DHT22;8567;52.540;6.434;2023-08-08T00:35:37;25.80;50.00
16901;DHT22;8567;52.540;6.434;2023-08-08T00:38:04;25.80;49.90
16901;DHT22;8567;52.540;6.434;2023-08-08T00:40:31;25.90;49.90
16901;DHT22;8567;52.540;6.434;2023-08-08T00:42:58;25.80;50.00
16901;DHT22;8567;52.540;6.434;2023-08-08T00:45:24;25.80;50.10
16901;DHT22;8567;52.540;6.434;2023-08-08T00:47:51;25.80;50.20
16901;DHT22;8567;52.540;6.434;2023-08-08T00:50:20;25.70;50.10
16901;DHT22;8567;52.540;6.434;2023-08-08T00:52:48;25.70;50.10
16901;DHT22;8567;52.540;6.434;2023-08-08T00:55:15;25.70;50.10
16901;DHT22;8567;52.540;6.434;2023-08-08T00:57:42;25.80;50.10
16901;DHT22;8567;52.540;6.434;2023-08-08T01:00:09;25.70;50.20
16901;DHT22;8567;52.540;6.434;2023-08-08T01:02:37;25.70;50.20
16901;DHT22;8567;52.540;6.434;2023-08-08T01:05:05;25.70;50.20
16901;DHT22;8567;52.540;6.434;2023-08-08T01:07:41;25.70;50.20
16901;DHT22;8567;52.540;6.434;2023-08-08T01:10:12;25.70;50.20
16901;DHT22;8567;52.540;6.434;2023-08-08T01:12:44;25.70;50.10
16901;DHT22;8567;52.540;6.434;2023-08-08T01:15:12;25.80;50.00
16901;DHT22;8567;52.540;6.434;2023-08-08T01:17:40;25.80;50.00
16901;DHT22;8567;52.540;6.434;2023-08-08T01:20:09;25.80;50.00
16901;DHT22;8567;52.540;6.434;2023-08-08T01:22:40;25.80;50.00
16901;DHT22;8567;52.540;6.434;2023-08-08T01:25:11;25.70;50.10
16901;DHT22;8567;52.540;6.434;2023-08-08T01:27:38;25.70;50.20
16901;DHT22;8567;52.540;6.434;2023-08-08T01:30:07;25.70;50.10
16901;DHT22;8567;52.540;6.434;2023-08-08T01:32:34;25.80;50.00
16901;DHT22;8567;52.540;6.434;2023-08-08T01:35:01;25.70;50.00
16901;DHT22;8567;52.540;6.434;2023-08-08T01:37:32;25.80;50.00
16901;DHT22;8567;52.540;6.434;2023-08-08T01:40:01;25.70;50.10
16901;DHT22;8567;52.540;6.434;2023-08-08T01:42:30;25.70;50.20
16901;DHT22;8567;52.540;6.434;2023-08-08T01:44:57;25.70;50.10
16901;DHT22;8567;52.540;6.434;2023-08-08T01:47:25;25.70;50.20
16901;DHT22;8567;52.540;6.434;2023-08-08T01:49:52;25.70;50.20
16901;DHT22;8567;52.540;6.434;2023-08-08T01:52:18;25.70;50.20
16901;DHT22;8567;52.540;6.434;2023-08-08T01:54:45;25.70;50.20
16901;DHT22;8567;52.540;6.434;2023-08-08T01:57:12;25.70;50.20
16901;DHT22;8567;52.540;6.434;2023-08-08T01:59:40;25.70;50.30
16901;DHT22;8567;52.540;6.434;2023-08-08T02:02:07;25.70;50.20
16901;DHT22;8567;52.540;6.434;2023-08-08T02:04:34;25.70;50.20
16901;DHT22;8567;52.540;6.434;2023-08-08T02:07:01;25.70;50.20
16901;DHT22;8567;52.540;6.434;2023-08-08T02:09:28;25.70;50.20
16901;DHT22;8567;52.540;6.434;2023-08-08T02:11:55;25.60;50.30
16901;DHT22;8567;52.540;6.434;2023-08-08T02:14:21;25.60;50.30
16901;DHT22;8567;52.540;6.434;2023-08-08T02:16:50;25.60;50.40
16901;DHT22;8567;52.540;6.434;2023-08-08T02:19:16;25.60;50.40
16901;DHT22;8567;52.540;6.434;2023-08-08T02:21:43;25.60;50.50
16901;DHT22;8567;52.540;6.434;2023-08-08T02:24:10;25.60;50.40
16901;DHT22;8567;52.540;6.434;2023-08-08T02:26:37;25.60;50.30
16901;DHT22;8567;52.540;6.434;2023-08-08T02:29:04;25.70;50.30
16901;DHT22;8567;52.540;6.434;2023-08-08T02:31:31;25.60;50.30
16901;DHT22;8567;52.540;6.434;2023-08-08T02:33:59;25.60;50.30
16901;DHT22;8567;52.540;6.434;2023-08-08T02:36:26;25.70;50.30
16901;DHT22;8567;52.540;6.434;2023-08-08T02:38:53;25.70;50.20
16901;DHT22;8567;52.540;6.434;2023-08-08T02:41:20;25.60;50.30
16901;DHT22;8567;52.540;6.434;2023-08-08T02:43:47;25.60;50.30
16901;DHT22;8567;52.540;6.434;2023-08-08T02:46:13;25.60;50.30
16901;DHT22;8567;52.540;6.434;2023-08-08T02:48:40;25.60;50.30
16901;DHT22;8567;52.540;6.434;2023-08-08T02:51:09;25.70;50.20
16901;DHT22;8567;52.540;6.434;2023-08-08T02:53:36;25.60;50.30
16901;DHT22;8567;52.540;6.434;2023-08-08T02:56:03;25.60;50.30
16901;DHT22;8567;52.540;6.434;2023-08-08T02:58:30;25.60;50.30
16901;DHT22;8567;52.540;6.434;2023-08-08T03:00:57;25.60;50.30
16901;DHT22;8567;52.540;6.434;2023-08-08T03:03:24;25.60;50.30
16901;DHT22;8567;52.540;6.434;2023-08-08T03:05:51;25.60;50.30
16901;DHT22;8567;52.540;6.434;2023-08-08T03:08:19;25.60;50.30
16901;DHT22;8567;52.540;6.434;2023-08-08T03:10:46;25.60;50.40
16901;DHT22;8567;52.540;6.434;2023-08-08T03:13:12;25.60;50.30
16901;DHT22;8567;52.540;6.434;2023-08-08T03:15:39;25.60;50.40
16901;DHT22;8567;52.540;6.434;2023-08-08T03:18:05;25.60;50.40
16901;DHT22;8567;52.540;6.434;2023-08-08T03:20:32;25.60;50.40
16901;DHT22;8567;52.540;6.434;2023-08-08T03:22:59;25.60;50.40
16901;DHT22;8567;52.540;6.434;2023-08-08T03:25:27;25.50;50.40
16901;DHT22;8567;52.540;6.434;2023-08-08T03:27:54;25.50;50.50
16901;DHT22;8567;52.540;6.434;2023-08-08T03:30:21;25.50;50.40
16901;DHT22;8567;52.540;6.434;2023-08-08T03:32:48;25.50;50.50
16901;DHT22;8567;52.540;6.434;2023-08-08T03:35:15;25.60;50.40
16901;DHT22;8567;52.540;6.434;2023-08-08T03:37:41;25.60;50.40
16901;DHT22;8567;52.540;6.434;2023-08-08T03:40:09;25.50;50.50
16901;DHT22;8567;52.540;6.434;2023-08-08T03:42:37;25.50;50.40
16901;DHT22;8567;52.540;6.434;2023-08-08T03:45:05;25.60;50.40
16901;DHT22;8567;52.540;6.434;2023-08-08T03:47:32;25.50;50.50
16901;DHT22;8567;52.540;6.434;2023-08-08T03:49:59;25.50;50.50
16901;DHT22;8567;52.540;6.434;2023-08-08T03:52:25;25.50;50.50
16901;DHT22;8567;52.540;6.434;2023-08-08T03:54:52;25.50;50.50
16901;DHT22;8567;52.540;6.434;2023-08-08T03:57:19;25.50;50.50
16901;DHT22;8567;52.540;6.434;2023-08-08T03:59:47;25.50;50.50
16901;DHT22;8567;52.540;6.434;2023-08-08T04:02:14;25.50;50.60
16901;DHT22;8567;52.540;6.434;2023-08-08T04:04:41;25.50;50.50
16901;DHT22;8567;52.540;6.434;2023-08-08T04:07:08;25.50;50.50
16901;DHT22;8567;52.540;6.434;2023-08-08T04:09:35;25.50;50.60
16901;DHT22;8567;52.540;6.434;2023-08-08T04:12:01;25.50;50.60
16901;DHT22;8567;52.540;6.434;2023-08-08T04:14:28;25.50;50.50
16901;DHT22;8567;52.540;6.434;2023-08-08T04:16:57;25.50;50.50
16901;DHT22;8567;52.540;6.434;2023-08-08T04:19:23;25.40;50.70
16901;DHT22;8567;52.540;6.434;2023-08-08T04:21:50;25.50;50.60
16901;DHT22;8567;52.540;6.434;2023-08-08T04:24:17;25.40;50.60
16901;DHT22;8567;52.540;6.434;2023-08-08T04:26:44;25.50;50.50
16901;DHT22;8567;52.540;6.434;2023-08-08T04:29:11;25.50;50.50
16901;DHT22;8567;52.540;6.434;2023-08-08T04:31:38;25.50;50.50
16901;DHT22;8567;52.540;6.434;2023-08-08T04:34:06;25.50;50.40
16901;DHT22;8567;52.540;6.434;2023-08-08T04:36:33;25.50;50.40
16901;DHT22;8567;52.540;6.434;2023-08-08T04:39:00;25.50;50.50
16901;DHT22;8567;52.540;6.434;2023-08-08T04:41:26;25.50;50.40
16901;DHT22;8567;52.540;6.434;2023-08-08T04:43:52;25.50;50.40
16901;DHT22;8567;52.540;6.434;2023-08-08T04:46:19;25.50;50.50
16901;DHT22;8567;52.540;6.434;2023-08-08T04:48:46;25.50;50.40
16901;DHT22;8567;52.540;6.434;2023-08-08T04:51:14;25.50;50.40
16901;DHT22;8567;52.540;6.434;2023-08-08T04:53:41;25.50;50.40
16901;DHT22;8567;52.540;6.434;2023-08-08T04:56:08;25.50;50.50
16901;DHT22;8567;52.540;6.434;2023-08-08T04:58:35;25.50;50.50
16901;DHT22;8567;52.540;6.434;2023-08-08T05:01:02;25.40;50.60
16901;DHT22;8567;52.540;6.434;2023-08-08T05:03:29;25.40;50.70
16901;DHT22;8567;52.540;6.434;2023-08-08T05:05:55;25.40;50.70
16901;DHT22;8567;52.540;6.434;2023-08-08T05:08:26;25.40;50.60
16901;DHT22;8567;52.540;6.434;2023-08-08T05:10:52;25.40;50.60
16901;DHT22;8567;52.540;6.434;2023-08-08T05:13:19;25.40;50.60
16901;DHT22;8567;52.540;6.434;2023-08-08T05:15:46;25.40;50.60
16901;DHT22;8567;52.540;6.434;2023-08-08T05:18:13;25.50;50.50
16901;DHT22;8567;52.540;6.434;2023-08-08T05:20:40;25.50;50.50
16901;DHT22;8567;52.540;6.434;2023-08-08T05:23:07;25.50;50.40
16901;DHT22;8567;52.540;6.434;2023-08-08T05:25:35;25.50;50.50
16901;DHT22;8567;52.540;6.434;2023-08-08T05:28:02;25.50;50.50
16901;DHT22;8567;52.540;6.434;2023-08-08T05:30:29;25.40;50.60
16901;DHT22;8567;52.540;6.434;2023-08-08T05:32:56;25.40;50.60
16901;DHT22;8567;52.540;6.434;2023-08-08T05:35:23;25.30;50.70
16901;DHT22;8567;52.540;6.434;2023-08-08T05:37:49;25.40;50.60
16901;DHT22;8567;52.540;6.434;2023-08-08T05:40:16;25.40;50.60
16901;DHT22;8567;52.540;6.434;2023-08-08T05:42:44;25.40;50.70
16901;DHT22;8567;52.540;6.434;2023-08-08T05:45:11;25.40;50.60
16901;DHT22;8567;52.540;6.434;2023-08-08T05:47:38;25.40;50.70
16901;DHT22;8567;52.540;6.434;2023-08-08T05:50:06;25.40;50.60
16901;DHT22;8567;52.540;6.434;2023-08-08T05:52:33;25.50;50.60
16901;DHT22;8567;52.540;6.434;2023-08-08T05:55:00;25.50;50.60
16901;DHT22;8567;52.540;6.434;2023-08-08T05:57:27;25.40;50.60
16901;DHT22;8567;52.540;6.434;2023-08-08T05:59:55;25.50;50.60
16901;DHT22;8567;52.540;6.434;2023-08-08T06:02:22;25.40;50.70
16901;DHT22;8567;52.540;6.434;2023-08-08T06:04:49;25.50;50.50
16901;DHT22;8567;52.540;6.434;2023-08-08T06:07:16;25.50;50.60
16901;DHT22;8567;52.540;6.434;2023-08-08T06:09:43;25.50;50.60
16901;DHT22;8567;52.540;6.434;2023-08-08T06:12:09;25.50;50.60
16901;DHT22;8567;52.540;6.434;2023-08-08T06:14:36;25.50;50.60
16901;DHT22;8567;52.540;6.434;2023-08-08T06:17:05;25.50;50.60
16901;DHT22;8567;52.540;6.434;2023-08-08T06:19:32;25.60;50.50
16901;DHT22;8567;52.540;6.434;2023-08-08T06:21:58;25.40;50.80
16901;DHT22;8567;52.540;6.434;2023-08-08T06:24:25;25.50;50.70
16901;DHT22;8567;52.540;6.434;2023-08-08T06:26:52;25.50;50.60
16901;DHT22;8567;52.540;6.434;2023-08-08T06:29:19;25.50;50.70
16901;DHT22;8567;52.540;6.434;2023-08-08T06:31:46;25.50;50.60
16901;DHT22;8567;52.540;6.434;2023-08-08T06:34:14;25.60;50.50
16901;DHT22;8567;52.540;6.434;2023-08-08T06:36:42;25.50;50.50
16901;DHT22;8567;52.540;6.434;2023-08-08T06:39:09;25.50;50.50
16901;DHT22;8567;52.540;6.434;2023-08-08T06:41:36;25.60;50.50
16901;DHT22;8567;52.540;6.434;2023-08-08T06:44:04;25.70;50.30
16901;DHT22;8567;52.540;6.434;2023-08-08T06:46:31;25.70;50.10
16901;DHT22;8567;52.540;6.434;2023-08-08T06:48:57;25.70;50.20
16901;DHT22;8567;52.540;6.434;2023-08-08T06:51:26;25.70;50.30
16901;DHT22;8567;52.540;6.434;2023-08-08T06:53:53;25.70;50.20
16901;DHT22;8567;52.540;6.434;2023-08-08T06:56:20;25.70;50.30
16901;DHT22;8567;52.540;6.434;2023-08-08T06:58:47;25.70;50.20
16901;DHT22;8567;52.540;6.434;2023-08-08T07:01:14;25.70;50.20
16901;DHT22;8567;52.540;6.434;2023-08-08T07:03:41;25.70;50.20
16901;DHT22;8567;52.540;6.434;2023-08-08T07:06:09;25.80;50.10
16901;DHT22;8567;52.540;6.434;2023-08-08T07:08:37;25.80;50.00
16901;DHT22;8567;52.540;6.434;2023-08-08T07:11:05;25.90;49.90
16901;DHT22;8567;52.540;6.434;2023-08-08T07:13:32;25.80;50.40
16901;DHT22;8567;52.540;6.434;2023-08-08T07:15:59;25.80;50.50
16901;DHT22;8567;52.540;6.434;2023-08-08T07:18:26;25.80;51.00
16901;DHT22;8567;52.540;6.434;2023-08-08T07:20:53;26.00;50.60
16901;DHT22;8567;52.540;6.434;2023-08-08T07:23:20;26.00;50.60
16901;DHT22;8567;52.540;6.434;2023-08-08T07:25:48;26.10;50.10
16901;DHT22;8567;52.540;6.434;2023-08-08T07:28:15;26.20;50.00
16901;DHT22;8567;52.540;6.434;2023-08-08T07:30:42;26.30;49.90
16901;DHT22;8567;52.540;6.434;2023-08-08T07:33:09;26.30;50.00
16901;DHT22;8567;52.540;6.434;2023-08-08T07:35:36;26.30;50.00
16901;DHT22;8567;52.540;6.434;2023-08-08T07:38:03;26.30;49.90
16901;DHT22;8567;52.540;6.434;2023-08-08T07:40:30;26.40;49.80
16901;DHT22;8567;52.540;6.434;2023-08-08T07:42:58;26.40;49.90
16901;DHT22;8567;52.540;6.434;2023-08-08T07:45:25;26.50;49.70
16901;DHT22;8567;52.540;6.434;2023-08-08T07:47:51;26.40;49.60
16901;DHT22;8567;52.540;6.434;2023-08-08T07:50:18;26.50;49.70
16901;DHT22;8567;52.540;6.434;2023-08-08T07:52:45;26.50;49.60
16901;DHT22;8567;52.540;6.434;2023-08-08T07:55:12;26.60;49.50
16901;DHT22;8567;52.540;6.434;2023-08-08T07:57:39;26.50;49.60
16901;DHT22;8567;52.540;6.434;2023-08-08T08:00:08;26.50;49.60
16901;DHT22;8567;52.540;6.434;2023-08-08T08:02:37;26.60;49.60
16901;DHT22;8567;52.540;6.434;2023-08-08T08:05:05;26.60;49.60
16901;DHT22;8567;52.540;6.434;2023-08-08T08:07:33;26.60;49.60
16901;DHT22;8567;52.540;6.434;2023-08-08T08:10:00;26.60;49.50
16901;DHT22;8567;52.540;6.434;2023-08-08T08:12:27;26.60;49.60
16901;DHT22;8567;52.540;6.434;2023-08-08T08:14:54;26.60;49.50
16901;DHT22;8567;52.540;6.434;2023-08-08T08:17:22;26.60;49.50
16901;DHT22;8567;52.540;6.434;2023-08-08T08:19:50;26.70;49.50
16901;DHT22;8567;52.540;6.434;2023-08-08T08:22:17;26.80;49.30
16901;DHT22;8567;52.540;6.434;2023-08-08T08:24:44;26.80;49.20
16901;DHT22;8567;52.540;6.434;2023-08-08T08:27:11;26.80;49.20
16901;DHT22;8567;52.540;6.434;2023-08-08T08:29:39;26.80;49.10
16901;DHT22;8567;52.540;6.434;2023-08-08T08:32:06;26.80;49.30
16901;DHT22;8567;52.540;6.434;2023-08-08T08:34:34;26.90;49.10
16901;DHT22;8567;52.540;6.434;2023-08-08T08:37:01;26.90;49.00
16901;DHT22;8567;52.540;6.434;2023-08-08T08:39:27;26.80;49.30
16901;DHT22;8567;52.540;6.434;2023-08-08T08:41:58;26.70;49.40
16901;DHT22;8567;52.540;6.434;2023-08-08T08:44:28;26.60;49.40
16901;DHT22;8567;52.540;6.434;2023-08-08T08:46:58;26.60;49.60
16901;DHT22;8567;52.540;6.434;2023-08-08T08:49:28;26.60;49.50
16901;DHT22;8567;52.540;6.434;2023-08-08T08:51:59;26.70;49.10
16901;DHT22;8567;52.540;6.434;2023-08-08T08:54:27;26.90;48.90
16901;DHT22;8567;52.540;6.434;2023-08-08T08:56:55;27.00;48.80
16901;DHT22;8567;52.540;6.434;2023-08-08T08:59:22;27.00;49.10
16901;DHT22;8567;52.540;6.434;2023-08-08T09:01:50;27.00;49.40
16901;DHT22;8567;52.540;6.434;2023-08-08T09:04:19;27.00;50.30
16901;DHT22;8567;52.540;6.434;2023-08-08T09:06:48;27.10;49.20
16901;DHT22;8567;52.540;6.434;2023-08-08T09:09:17;27.00;49.50
16901;DHT22;8567;52.540;6.434;2023-08-08T09:11:48;27.20;49.40
16901;DHT22;8567;52.540;6.434;2023-08-08T09:14:17;27.00;49.70
16901;DHT22;8567;52.540;6.434;2023-08-08T09:16:44;27.10;49.60
16901;DHT22;8567;52.540;6.434;2023-08-08T09:19:11;27.00;49.60
16901;DHT22;8567;52.540;6.434;2023-08-08T09:21:38;27.10;49.60
16901;DHT22;8567;52.540;6.434;2023-08-08T09:24:05;27.10;49.50
16901;DHT22;8567;52.540;6.434;2023-08-08T09:26:34;27.10;49.60
16901;DHT22;8567;52.540;6.434;2023-08-08T09:29:01;27.20;49.40
16901;DHT22;8567;52.540;6.434;2023-08-08T09:31:28;27.30;49.20
16901;DHT22;8567;52.540;6.434;2023-08-08T09:33:56;27.20;49.40
16901;DHT22;8567;52.540;6.434;2023-08-08T09:36:24;27.30;49.30
16901;DHT22;8567;52.540;6.434;2023-08-08T09:38:51;27.30;49.40
16901;DHT22;8567;52.540;6.434;2023-08-08T09:41:19;27.30;49.30
16901;DHT22;8567;52.540;6.434;2023-08-08T09:43:47;27.20;49.30
16901;DHT22;8567;52.540;6.434;2023-08-08T09:46:14;27.20;49.40
16901;DHT22;8567;52.540;6.434;2023-08-08T09:48:41;27.20;49.50
16901;DHT22;8567;52.540;6.434;2023-08-08T09:51:09;27.20;49.30
16901;DHT22;8567;52.540;6.434;2023-08-08T09:53:36;27.30;49.10
16901;DHT22;8567;52.540;6.434;2023-08-08T09:56:04;27.40;49.20
16901;DHT22;8567;52.540;6.434;2023-08-08T09:58:31;27.30;49.30
16901;DHT22;8567;52.540;6.434;2023-08-08T10:01:00;27.40;49.20
16901;DHT22;8567;52.540;6.434;2023-08-08T10:03:28;27.40;49.10
16901;DHT22;8567;52.540;6.434;2023-08-08T10:05:55;27.50;49.00
16901;DHT22;8567;52.540;6.434;2023-08-08T10:08:22;27.30;49.30
16901;DHT22;8567;52.540;6.434;2023-08-08T10:10:50;27.30;49.30
16901;DHT22;8567;52.540;6.434;2023-08-08T10:13:20;27.30;49.40
16901;DHT22;8567;52.540;6.434;2023-08-08T10:15:47;27.30;49.40
16901;DHT22;8567;52.540;6.434;2023-08-08T10:18:15;27.40;49.30
16901;DHT22;8567;52.540;6.434;2023-08-08T10:20:43;27.30;49.30
16901;DHT22;8567;52.540;6.434;2023-08-08T10:23:10;27.20;49.40
16901;DHT22;8567;52.540;6.434;2023-08-08T10:25:37;27.20;49.60
16901;DHT22;8567;52.540;6.434;2023-08-08T10:28:10;27.30;49.40
16901;DHT22;8567;52.540;6.434;2023-08-08T10:30:43;27.30;49.40
16901;DHT22;8567;52.540;6.434;2023-08-08T10:33:19;27.30;49.30
16901;DHT22;8567;52.540;6.434;2023-08-08T10:36:00;27.30;49.30
16901;DHT22;8567;52.540;6.434;2023-08-08T10:38:39;27.40;49.20
16901;DHT22;8567;52.540;6.434;2023-08-08T10:41:09;27.20;49.50
16901;DHT22;8567;52.540;6.434;2023-08-08T10:43:37;27.40;49.20
16901;DHT22;8567;52.540;6.434;2023-08-08T10:46:04;27.50;49.00
16901;DHT22;8567;52.540;6.434;2023-08-08T10:48:32;27.50;49.20
16901;DHT22;8567;52.540;6.434;2023-08-08T10:51:00;27.50;49.00
16901;DHT22;8567;52.540;6.434;2023-08-08T10:53:27;27.50;49.10
16901;DHT22;8567;52.540;6.434;2023-08-08T10:55:58;27.30;49.30
16901;DHT22;8567;52.540;6.434;2023-08-08T10:58:35;27.30;49.30
16901;DHT22;8567;52.540;6.434;2023-08-08T11:01:02;27.40;49.20
16901;DHT22;8567;52.540;6.434;2023-08-08T11:03:35;27.20;47.40
16901;DHT22;8567;52.540;6.434;2023-08-08T11:06:02;27.00;45.70
16901;DHT22;8567;52.540;6.434;2023-08-08T11:08:30;26.80;45.30
16901;DHT22;8567;52.540;6.434;2023-08-08T11:10:57;26.70;44.90
16901;DHT22;8567;52.540;6.434;2023-08-08T11:13:24;26.60;45.00
16901;DHT22;8567;52.540;6.434;2023-08-08T11:15:51;26.50;45.00
16901;DHT22;8567;52.540;6.434;2023-08-08T11:18:18;26.40;45.00
16901;DHT22;8567;52.540;6.434;2023-08-08T11:20:47;26.40;45.10
16901;DHT22;8567;52.540;6.434;2023-08-08T11:23:14;26.20;45.20
16901;DHT22;8567;52.540;6.434;2023-08-08T11:25:42;26.10;45.50
16901;DHT22;8567;52.540;6.434;2023-08-08T11:28:09;26.00;45.90
16901;DHT22;8567;52.540;6.434;2023-08-08T11:30:38;26.30;45.50
16901;DHT22;8567;52.540;6.434;2023-08-08T11:33:05;26.60;45.20
16901;DHT22;8567;52.540;6.434;2023-08-08T11:35:33;26.80;45.00
16901;DHT22;8567;52.540;6.434;2023-08-08T11:38:03;27.00;44.90
16901;DHT22;8567;52.540;6.434;2023-08-08T11:40:31;27.00;45.00
16901;DHT22;8567;52.540;6.434;2023-08-08T11:42:59;27.00;45.00
16901;DHT22;8567;52.540;6.434;2023-08-08T11:45:26;27.00;45.20
16901;DHT22;8567;52.540;6.434;2023-08-08T11:47:54;27.10;45.00
16901;DHT22;8567;52.540;6.434;2023-08-08T11:50:24;27.20;45.00
16901;DHT22;8567;52.540;6.434;2023-08-08T11:52:51;27.30;44.90
16901;DHT22;8567;52.540;6.434;2023-08-08T11:55:21;27.20;45.10
16901;DHT22;8567;52.540;6.434;2023-08-08T11:57:49;27.30;45.20
16901;DHT22;8567;52.540;6.434;2023-08-08T12:00:17;27.30;45.20
16901;DHT22;8567;52.540;6.434;2023-08-08T12:02:44;27.30;45.20
16901;DHT22;8567;52.540;6.434;2023-08-08T12:05:14;27.30;45.30
16901;DHT22;8567;52.540;6.434;2023-08-08T12:07:43;27.30;45.50
16901;DHT22;8567;52.540;6.434;2023-08-08T12:10:15;27.30;45.50
16901;DHT22;8567;52.540;6.434;2023-08-08T12:12:45;27.30;45.50
16901;DHT22;8567;52.540;6.434;2023-08-08T12:15:12;27.30;45.60
16901;DHT22;8567;52.540;6.434;2023-08-08T12:17:42;27.20;45.90
16901;DHT22;8567;52.540;6.434;2023-08-08T12:20:09;27.20;45.90
16901;DHT22;8567;52.540;6.434;2023-08-08T12:22:36;27.30;45.90
16901;DHT22;8567;52.540;6.434;2023-08-08T12:25:04;27.50;45.50
16901;DHT22;8567;52.540;6.434;2023-08-08T12:27:31;27.70;45.10
16901;DHT22;8567;52.540;6.434;2023-08-08T12:29:59;27.60;45.20
16901;DHT22;8567;52.540;6.434;2023-08-08T12:32:27;27.70;45.10
16901;DHT22;8567;52.540;6.434;2023-08-08T12:34:57;27.70;45.10
16901;DHT22;8567;52.540;6.434;2023-08-08T12:37:23;27.90;44.90
16901;DHT22;8567;52.540;6.434;2023-08-08T12:39:50;28.00;44.70
16901;DHT22;8567;52.540;6.434;2023-08-08T12:42:17;27.90;44.90
16901;DHT22;8567;52.540;6.434;2023-08-08T12:44:45;27.90;44.90
16901;DHT22;8567;52.540;6.434;2023-08-08T12:47:14;27.80;45.00
16901;DHT22;8567;52.540;6.434;2023-08-08T12:49:41;27.80;45.00
16901;DHT22;8567;52.540;6.434;2023-08-08T12:52:07;27.80;45.10
16901;DHT22;8567;52.540;6.434;2023-08-08T12:54:34;27.90;44.90
16901;DHT22;8567;52.540;6.434;2023-08-08T12:57:02;28.00;44.80
16901;DHT22;8567;52.540;6.434;2023-08-08T12:59:29;28.00;44.70
16901;DHT22;8567;52.540;6.434;2023-08-08T13:01:56;28.00;44.90
16901;DHT22;8567;52.540;6.434;2023-08-08T13:04:24;28.00;44.80
16901;DHT22;8567;52.540;6.434;2023-08-08T13:06:51;27.90;45.00
16901;DHT22;8567;52.540;6.434;2023-08-08T13:09:18;27.90;45.10
16901;DHT22;8567;52.540;6.434;2023-08-08T13:11:45;27.80;45.30
16901;DHT22;8567;52.540;6.434;2023-08-08T13:14:12;27.70;45.60
16901;DHT22;8567;52.540;6.434;2023-08-08T13:16:39;27.60;45.70
16901;DHT22;8567;52.540;6.434;2023-08-08T13:19:06;27.50;46.00
16901;DHT22;8567;52.540;6.434;2023-08-08T13:21:34;27.60;45.80
16901;DHT22;8567;52.540;6.434;2023-08-08T13:24:01;27.60;45.90
16901;DHT22;8567;52.540;6.434;2023-08-08T13:26:28;27.60;45.80
16901;DHT22;8567;52.540;6.434;2023-08-08T13:28:54;27.60;45.90
16901;DHT22;8567;52.540;6.434;2023-08-08T13:31:21;27.80;45.70
16901;DHT22;8567;52.540;6.434;2023-08-08T13:33:48;28.00;45.30
16901;DHT22;8567;52.540;6.434;2023-08-08T13:36:15;28.10;45.10
16901;DHT22;8567;52.540;6.434;2023-08-08T13:38:43;28.10;45.20
16901;DHT22;8567;52.540;6.434;2023-08-08T13:41:10;28.00;45.30
16901;DHT22;8567;52.540;6.434;2023-08-08T13:43:37;27.80;45.70
16901;DHT22;8567;52.540;6.434;2023-08-08T13:46:04;27.50;46.20
16901;DHT22;8567;52.540;6.434;2023-08-08T13:48:33;27.50;46.40
16901;DHT22;8567;52.540;6.434;2023-08-08T13:51:00;27.40;46.60
16901;DHT22;8567;52.540;6.434;2023-08-08T13:53:28;27.40;46.60
16901;DHT22;8567;52.540;6.434;2023-08-08T13:55:56;27.40;46.60
16901;DHT22;8567;52.540;6.434;2023-08-08T13:58:23;27.40;46.60
16901;DHT22;8567;52.540;6.434;2023-08-08T14:00:50;27.40;46.70
16901;DHT22;8567;52.540;6.434;2023-08-08T14:03:17;27.30;46.70
16901;DHT22;8567;52.540;6.434;2023-08-08T14:05:44;27.30;46.80
16901;DHT22;8567;52.540;6.434;2023-08-08T14:08:11;27.40;46.70
16901;DHT22;8567;52.540;6.434;2023-08-08T14:10:38;27.60;46.40
16901;DHT22;8567;52.540;6.434;2023-08-08T14:13:06;27.50;46.50
16901;DHT22;8567;52.540;6.434;2023-08-08T14:15:33;27.40;46.80
16901;DHT22;8567;52.540;6.434;2023-08-08T14:18:00;27.30;47.20
16901;DHT22;8567;52.540;6.434;2023-08-08T14:20:27;27.40;47.30
16901;DHT22;8567;52.540;6.434;2023-08-08T14:22:53;27.60;46.90
16901;DHT22;8567;52.540;6.434;2023-08-08T14:25:21;27.70;47.10
16901;DHT22;8567;52.540;6.434;2023-08-08T14:27:48;27.80;47.00
16901;DHT22;8567;52.540;6.434;2023-08-08T14:30:16;27.80;46.90
16901;DHT22;8567;52.540;6.434;2023-08-08T14:32:43;27.80;47.00
16901;DHT22;8567;52.540;6.434;2023-08-08T14:35:10;27.80;47.10
16901;DHT22;8567;52.540;6.434;2023-08-08T14:37:38;27.90;47.10
16901;DHT22;8567;52.540;6.434;2023-08-08T14:40:06;28.20;46.70
16901;DHT22;8567;52.540;6.434;2023-08-08T14:42:33;28.40;46.80
16901;DHT22;8567;52.540;6.434;2023-08-08T14:45:00;28.50;46.20
16901;DHT22;8567;52.540;6.434;2023-08-08T14:47:28;28.60;46.00
16901;DHT22;8567;52.540;6.434;2023-08-08T14:49:55;28.50;46.30
16901;DHT22;8567;52.540;6.434;2023-08-08T14:52:21;28.50;46.30
16901;DHT22;8567;52.540;6.434;2023-08-08T14:54:49;28.60;46.20
16901;DHT22;8567;52.540;6.434;2023-08-08T14:57:16;28.70;46.20
16901;DHT22;8567;52.540;6.434;2023-08-08T14:59:43;28.90;45.90
16901;DHT22;8567;52.540;6.434;2023-08-08T15:02:09;29.00;45.80
16901;DHT22;8567;52.540;6.434;2023-08-08T15:04:38;29.20;45.50
16901;DHT22;8567;52.540;6.434;2023-08-08T15:07:04;29.30;45.70
16901;DHT22;8567;52.540;6.434;2023-08-08T15:09:31;29.40;45.40
16901;DHT22;8567;52.540;6.434;2023-08-08T15:11:58;29.50;45.20
16901;DHT22;8567;52.540;6.434;2023-08-08T15:14:25;29.50;45.30
16901;DHT22;8567;52.540;6.434;2023-08-08T15:16:53;29.50;45.30
16901;DHT22;8567;52.540;6.434;2023-08-08T15:19:20;29.50;45.50
16901;DHT22;8567;52.540;6.434;2023-08-08T15:21:48;29.30;45.80
16901;DHT22;8567;52.540;6.434;2023-08-08T15:24:15;29.50;45.50
16901;DHT22;8567;52.540;6.434;2023-08-08T15:26:42;29.50;45.50
16901;DHT22;8567;52.540;6.434;2023-08-08T15:29:09;29.20;46.20
16901;DHT22;8567;52.540;6.434;2023-08-08T15:31:36;29.00;46.50
16901;DHT22;8567;52.540;6.434;2023-08-08T15:34:03;29.00;46.60
16901;DHT22;8567;52.540;6.434;2023-08-08T15:36:31;29.40;45.90
16901;DHT22;8567;52.540;6.434;2023-08-08T15:38:59;29.80;45.40
16901;DHT22;8567;52.540;6.434;2023-08-08T15:41:26;29.70;45.50
16901;DHT22;8567;52.540;6.434;2023-08-08T15:43:53;29.50;45.80
16901;DHT22;8567;52.540;6.434;2023-08-08T15:46:19;29.50;46.10